M C B H Kaneohe Bay, HI (96863)

4:04 PM HST on August 28, 2016 (GMT -1000)
Kailua | | Change Station

Elev 20 ft 21.40 °N, 157.75 °W | Updated 7 seconds ago

Overcast
Overcast
84.0 °F
Feels Like 88 °F
N
3.2
Wind Variable Wind from SE

Today
High -- | Low -- °F
--% Chance of Precip.
Yesterday
High -- | Low -- °F
Precip. -- in
Pressure 29.90 in
Visibility 10.0 miles
Clouds Few 2400 ft
Mostly Cloudy 3600 ft
Overcast 4400 ft
Heat Index 88 °F
Dew Point 69 °F
Humidity 61%
Rainfall 0.07 in
Snow Depth Not available.
6:13 AM 6:50 PM
Waning Crescent, 12% visible
METAR PHNG 290157Z AUTO 05012G15KT 10SM FEW024 BKN036 OVC044 27/21 A2991 RMK AO2 SLP123 T02720211 PWINO $
Pressure 29.90 in
Visibility 10.0 miles
Clouds Few 2400 ft
Mostly Cloudy 3600 ft
Overcast 4400 ft
Heat Index 88 °F
Dew Point 69 °F
Humidity 61%
Rainfall 0.07 in
Snow Depth Not available.
6:13 AM 6:50 PM
Waning Crescent, 12% visible
METAR PHNG 290157Z AUTO 05012G15KT 10SM FEW024 BKN036 OVC044 27/21 A2991 RMK AO2 SLP123 T02720211 PWINO $

10-Day Weather Forecast

Almanac

Astronomy

Aug. 28, 2016 Rise Set
Actual Time
Civil Twilight
Nautical Twilight
Astronomical Twilight
Moon
Length of Visible Light
Length of Day
Tomorrow will be .
, % of the Moon is Illuminated

Today's Extremes

State Highs State Lows

Community

WunderPhotos

Upload Photos

1,935,768 photos uploaded!

WunderBlog® & News

Nearby

Air Quality

  Air Quality AQ Index Pollutant
Not available.

Snow Depth

Station Depth Elevation

Earthquake Activity

City Distance Mag. Time & Date
Minimum magnitude displayed is 2.5.

Coastal Water Temperatures

Place Temperature

Stations

Nearby Weather Stations

Station Location Temp. Windchill Dew Point Humidity Wind Precip. Elev Updated Type
                   

Watches & Warnings

There are currently no watches in effect.